Time;durP1;ratioP1;P1;durP2;ratioP2;P2;SDS_P1;SDS_P2;PMS_P1;PMS_P2;Temp;Humidity;BMP_temperature;BMP_pressure;BME280_temperature;BME280_humidity;BME280_pressure;Samples;Min_cycle;Max_cycle;Signal;HPM_P1;HPM_P2
2022/06/30 00:00:17;;;;;;;5.18;1.38;;;20.90;65.10;;;;;;5005420;28;20100;-73
2022/06/30 00:02:43;;;;;;;4.68;1.23;;;20.90;65.20;;;;;;5005856;28;20490;-73
2022/06/30 00:05:08;;;;;;;6.20;1.50;;;20.90;65.10;;;;;;5006896;28;20032;-74
2022/06/30 00:07:34;;;;;;;4.65;1.25;;;20.90;65.10;;;;;;5006125;28;20026;-73
2022/06/30 00:10:00;;;;;;;3.33;1.02;;;20.90;65.20;;;;;;5009568;28;20037;-73
2022/06/30 00:12:25;;;;;;;4.40;1.50;;;20.90;65.20;;;;;;5003060;28;20045;-73
2022/06/30 00:14:51;;;;;;;5.65;1.45;;;20.80;65.10;;;;;;5005111;28;20033;-73
2022/06/30 00:17:16;;;;;;;4.72;1.30;;;20.90;65.20;;;;;;5006392;28;20567;-73
2022/06/30 00:19:45;;;;;;;7.32;1.38;;;20.90;65.20;;;;;;5005293;28;20100;-73
2022/06/30 00:22:11;;;;;;;5.00;1.20;;;20.80;65.20;;;;;;5007105;28;20085;-73
2022/06/30 00:24:37;;;;;;;6.22;1.30;;;20.80;65.20;;;;;;5006174;28;20026;-71
2022/06/30 00:27:04;;;;;;;6.65;1.30;;;20.80;65.10;;;;;;5006272;28;20026;-73
2022/06/30 00:29:29;;;;;;;6.10;1.67;;;20.80;65.10;;;;;;5029952;28;20030;-73
2022/06/30 00:31:55;;;;;;;7.53;1.27;;;20.80;65.10;;;;;;5006940;28;20038;-73
2022/06/30 00:34:21;;;;;;;6.15;1.35;;;20.80;65.10;;;;;;5004909;28;20080;-73
2022/06/30 00:36:46;;;;;;;3.80;1.20;;;20.80;65.20;;;;;;5004055;28;20029;-73
2022/06/30 00:39:12;;;;;;;5.80;1.20;;;20.80;65.10;;;;;;5007364;28;20092;-73
2022/06/30 00:41:41;;;;;;;3.42;1.20;;;20.80;65.10;;;;;;5005864;28;20037;-73
2022/06/30 00:44:07;;;;;;;3.50;1.25;;;20.80;65.10;;;;;;5007299;28;20112;-73
2022/06/30 00:46:33;;;;;;;4.57;1.05;;;20.80;65.10;;;;;;5006596;28;20061;-74
2022/06/30 00:49:00;;;;;;;4.60;1.10;;;20.70;65.00;;;;;;5007375;28;20114;-73
2022/06/30 00:51:25;;;;;;;5.18;1.20;;;20.70;65.10;;;;;;4995960;28;20398;-73
2022/06/30 00:53:51;;;;;;;4.13;1.10;;;20.70;65.10;;;;;;5004953;28;20025;-73
2022/06/30 00:56:16;;;;;;;3.25;1.08;;;20.70;65.10;;;;;;5005895;28;20034;-73
2022/06/30 00:58:42;;;;;;;4.40;1.17;;;20.70;65.00;;;;;;5002720;28;20089;-73
2022/06/30 01:01:08;;;;;;;5.18;1.40;;;20.70;65.10;;;;;;5008762;28;20597;-73
2022/06/30 01:03:34;;;;;;;3.80;1.02;;;20.70;65.00;;;;;;5004681;28;20022;-73
2022/06/30 01:06:02;;;;;;;3.75;1.25;;;20.70;65.10;;;;;;5006582;28;20101;-73
2022/06/30 01:08:31;;;;;;;3.90;1.05;;;20.70;65.10;;;;;;5003976;28;20509;-74
2022/06/30 01:13:45;;;;;;;6.15;1.38;;;20.60;65.10;;;;;;5006284;28;20658;-73
2022/06/30 01:16:11;;;;;;;4.07;1.15;;;20.60;65.00;;;;;;5004022;28;20065;-73
2022/06/30 01:18:36;;;;;;;5.43;1.30;;;20.60;65.00;;;;;;5004111;28;20037;-73
2022/06/30 01:21:02;;;;;;;4.20;1.38;;;20.70;65.10;;;;;;5005696;28;20406;-73
2022/06/30 01:23:28;;;;;;;4.88;1.15;;;20.70;65.00;;;;;;5002154;28;20512;-73
2022/06/30 01:25:54;;;;;;;3.20;1.08;;;20.60;65.00;;;;;;5005192;28;20569;-73
2022/06/30 01:28:19;;;;;;;4.15;1.10;;;20.60;65.00;;;;;;5019295;28;20018;-73
2022/06/30 01:30:45;;;;;;;4.45;1.02;;;20.60;65.00;;;;;;5005197;28;20036;-73
2022/06/30 01:33:11;;;;;;;3.25;0.98;;;20.60;65.00;;;;;;5005701;28;20034;-73
2022/06/30 01:35:37;;;;;;;5.15;1.15;;;20.60;65.00;;;;;;5005086;28;20029;-73
2022/06/30 01:38:02;;;;;;;2.78;1.02;;;20.60;65.10;;;;;;5005312;28;20044;-73
2022/06/30 01:40:30;;;;;;;4.25;1.02;;;20.60;65.00;;;;;;5005684;28;20386;-73
2022/06/30 01:42:55;;;;;;;4.10;1.25;;;20.60;65.00;;;;;;5006150;28;20049;-73
2022/06/30 01:45:21;;;;;;;2.85;0.90;;;20.60;65.00;;;;;;5005569;28;20018;-73
2022/06/30 01:47:47;;;;;;;3.78;1.20;;;20.60;65.00;;;;;;5004834;28;20028;-73
2022/06/30 01:50:16;;;;;;;4.43;1.30;;;20.50;64.90;;;;;;5005936;28;20033;-73
2022/06/30 01:52:42;;;;;;;3.25;1.38;;;20.50;64.90;;;;;;5003690;28;20034;-73
2022/06/30 01:55:08;;;;;;;3.30;1.13;;;20.50;64.90;;;;;;5006081;28;20033;-73
2022/06/30 01:57:34;;;;;;;3.55;1.08;;;20.50;64.90;;;;;;5004832;28;20033;-73
2022/06/30 02:00:00;;;;;;;3.10;1.05;;;20.50;64.90;;;;;;5004648;28;20541;-72
2022/06/30 02:02:26;;;;;;;4.53;1.20;;;20.50;64.90;;;;;;5004136;28;20037;-73
2022/06/30 02:04:53;;;;;;;4.05;1.00;;;20.50;64.90;;;;;;5005306;28;20041;-73
2022/06/30 02:07:20;;;;;;;4.10;1.00;;;20.50;64.90;;;;;;5004122;28;20046;-73
2022/06/30 02:09:46;;;;;;;4.78;1.20;;;20.50;64.80;;;;;;5005281;28;20096;-73
2022/06/30 02:14:56;;;;;;;3.97;1.15;;;20.40;64.80;;;;;;5004440;28;20569;-73
2022/06/30 02:17:22;;;;;;;5.35;1.20;;;20.40;64.80;;;;;;5004268;28;20050;-73
2022/06/30 02:19:48;;;;;;;3.13;1.25;;;20.40;64.80;;;;;;5005760;28;20026;-73
2022/06/30 02:22:13;;;;;;;2.60;1.10;;;20.40;64.80;;;;;;5003923;28;20040;-73
2022/06/30 02:24:39;;;;;;;3.33;1.13;;;20.40;64.80;;;;;;5005634;28;20627;-72
2022/06/30 02:27:05;;;;;;;2.80;1.00;;;20.40;64.80;;;;;;5005669;28;20033;-73
2022/06/30 02:29:30;;;;;;;3.25;0.98;;;20.40;64.80;;;;;;5001714;28;20064;-72
2022/06/30 02:31:56;;;;;;;4.35;1.10;;;20.40;64.70;;;;;;5005684;28;20053;-73
2022/06/30 02:34:22;;;;;;;4.28;1.20;;;20.40;64.70;;;;;;5005900;28;20022;-73
2022/06/30 02:36:47;;;;;;;3.45;1.10;;;20.40;64.80;;;;;;5005578;28;20460;-73
2022/06/30 02:39:13;;;;;;;4.25;1.17;;;20.30;64.70;;;;;;5004703;28;20075;-73
2022/06/30 02:41:38;;;;;;;3.75;1.08;;;20.40;64.80;;;;;;5001296;28;20069;-73
2022/06/30 02:44:04;;;;;;;2.78;0.90;;;20.30;64.70;;;;;;5005623;28;20560;-73
2022/06/30 02:46:30;;;;;;;4.07;1.05;;;20.30;64.60;;;;;;5004301;28;20046;-73
2022/06/30 02:48:55;;;;;;;3.00;1.10;;;20.30;64.70;;;;;;5002667;28;20022;-73
2022/06/30 02:51:21;;;;;;;2.53;0.88;;;20.30;64.60;;;;;;5000630;28;20521;-73
2022/06/30 02:53:47;;;;;;;4.80;1.10;;;20.30;64.60;;;;;;5004676;28;20480;-73
2022/06/30 02:56:13;;;;;;;3.50;1.00;;;20.30;64.70;;;;;;5002159;28;20039;-73
2022/06/30 02:58:39;;;;;;;4.78;0.95;;;20.30;64.60;;;;;;5003533;28;20080;-72
2022/06/30 03:01:04;;;;;;;3.53;1.17;;;20.30;64.60;;;;;;5003683;28;20100;-73
2022/06/30 03:03:30;;;;;;;3.78;1.10;;;20.30;64.60;;;;;;5004870;28;20663;-73
2022/06/30 03:05:55;;;;;;;2.05;0.93;;;20.30;64.60;;;;;;5006127;28;20045;-73
2022/06/30 03:08:21;;;;;;;5.65;1.13;;;20.30;64.50;;;;;;5005441;28;20021;-73
2022/06/30 03:10:47;;;;;;;4.30;1.30;;;20.30;64.60;;;;;;5003763;28;20030;-72
2022/06/30 03:13:12;;;;;;;3.22;1.00;;;20.30;64.60;;;;;;5003487;28;20018;-73
2022/06/30 03:15:38;;;;;;;1.92;0.90;;;20.20;64.50;;;;;;5002423;28;20029;-73
2022/06/30 03:18:04;;;;;;;2.75;1.10;;;20.20;64.60;;;;;;5005275;28;20026;-72
2022/06/30 03:20:29;;;;;;;3.50;1.00;;;20.20;64.60;;;;;;5009376;28;20494;-73
2022/06/30 03:22:55;;;;;;;1.55;0.80;;;20.20;64.50;;;;;;5009680;28;20026;-73
2022/06/30 03:25:21;;;;;;;3.05;0.80;;;20.20;64.50;;;;;;5007427;28;20494;-72
2022/06/30 03:27:46;;;;;;;3.65;1.20;;;20.20;64.50;;;;;;5008789;28;20077;-73
2022/06/30 03:30:12;;;;;;;3.83;0.90;;;20.20;64.50;;;;;;5006464;28;20049;-73
2022/06/30 03:32:38;;;;;;;4.13;1.00;;;20.20;64.50;;;;;;5009126;28;20136;-72
2022/06/30 03:35:04;;;;;;;5.32;1.40;;;20.20;64.50;;;;;;5008479;28;20482;-73
2022/06/30 03:37:30;;;;;;;3.63;1.20;;;20.20;64.50;;;;;;5007620;28;20516;-73
2022/06/30 03:39:56;;;;;;;6.32;1.25;;;20.20;65.40;;;;;;5007957;28;20102;-73
2022/06/30 03:42:23;;;;;;;5.30;1.17;;;20.20;65.10;;;;;;5009255;28;20030;-73
2022/06/30 03:44:49;;;;;;;7.15;1.42;;;20.20;65.30;;;;;;5006169;28;20022;-73
2022/06/30 03:47:14;;;;;;;5.18;1.15;;;20.20;65.20;;;;;;5007098;28;20037;-72
2022/06/30 03:49:40;;;;;;;5.22;1.40;;;20.20;65.20;;;;;;5009349;28;20109;-73
2022/06/30 03:52:06;;;;;;;6.82;1.23;;;20.20;65.00;;;;;;5005286;28;20121;-72
2022/06/30 03:54:31;;;;;;;6.53;1.40;;;20.20;64.90;;;;;;5008469;28;20101;-73
2022/06/30 03:56:57;;;;;;;4.93;1.20;;;20.20;65.00;;;;;;5007264;28;20038;-72
2022/06/30 03:59:23;;;;;;;4.97;1.40;;;20.20;65.00;;;;;;5006553;28;20087;-72
2022/06/30 04:01:48;;;;;;;5.50;1.60;;;20.20;65.00;;;;;;5006753;28;20026;-73
2022/06/30 04:04:14;;;;;;;5.13;1.30;;;20.20;65.10;;;;;;5009033;28;20041;-72
2022/06/30 04:06:39;;;;;;;3.88;1.10;;;20.20;65.10;;;;;;5008847;28;20074;-72
2022/06/30 04:09:05;;;;;;;4.25;1.10;;;20.20;65.20;;;;;;5006345;28;20022;-73
2022/06/30 04:11:31;;;;;;;5.05;1.25;;;20.10;65.10;;;;;;5007255;28;20045;-72
2022/06/30 04:13:56;;;;;;;4.47;1.20;;;20.20;65.20;;;;;;5007386;28;20034;-73
2022/06/30 04:16:22;;;;;;;4.70;1.10;;;20.10;65.10;;;;;;5006943;28;20109;-73
2022/06/30 04:18:48;;;;;;;3.67;1.15;;;20.10;65.10;;;;;;5007341;28;20017;-72
2022/06/30 04:21:16;;;;;;;3.60;1.10;;;20.10;65.20;;;;;;5014559;28;20034;-73
2022/06/30 04:23:42;;;;;;;4.57;1.20;;;20.10;65.20;;;;;;5007480;28;20017;-73
2022/06/30 04:26:08;;;;;;;4.53;1.17;;;20.10;65.20;;;;;;5008189;28;20029;-72
2022/06/30 04:28:34;;;;;;;3.70;1.13;;;20.10;65.20;;;;;;5006049;28;20552;-73
2022/06/30 04:33:44;;;;;;;2.90;1.13;;;20.10;65.30;;;;;;5003718;28;20599;-73
2022/06/30 04:36:09;;;;;;;5.15;1.10;;;20.10;65.20;;;;;;5005916;28;20395;-73
2022/06/30 04:38:35;;;;;;;6.60;1.15;;;20.10;65.20;;;;;;5006193;28;20110;-73
2022/06/30 04:43:46;;;;;;;3.67;1.05;;;20.10;65.20;;;;;;5007143;28;20777;-73
2022/06/30 04:46:11;;;;;;;3.78;1.00;;;20.00;65.20;;;;;;5004305;28;20522;-73
2022/06/30 04:48:37;;;;;;;4.55;1.20;;;20.00;65.20;;;;;;5006596;28;20065;-73
2022/06/30 04:51:02;;;;;;;4.97;1.13;;;20.00;65.20;;;;;;5006235;28;20041;-73
2022/06/30 04:53:28;;;;;;;4.07;0.90;;;20.00;65.20;;;;;;5005232;28;20034;-73
2022/06/30 04:55:54;;;;;;;6.22;1.27;;;20.00;65.20;;;;;;5006117;28;20022;-72
2022/06/30 04:58:19;;;;;;;3.15;1.08;;;20.00;65.20;;;;;;5004017;28;20482;-72
2022/06/30 05:00:45;;;;;;;3.50;1.13;;;20.00;65.20;;;;;;5005267;28;20032;-73
2022/06/30 05:03:11;;;;;;;3.65;0.90;;;20.00;65.20;;;;;;5004338;28;20033;-73
2022/06/30 05:05:36;;;;;;;2.47;1.00;;;20.00;65.20;;;;;;5005872;28;20053;-73
2022/06/30 05:08:02;;;;;;;4.05;0.85;;;20.00;65.10;;;;;;5005472;28;20064;-73
2022/06/30 05:10:27;;;;;;;8.13;1.23;;;20.00;65.20;;;;;;5003711;28;20121;-73
2022/06/30 05:12:53;;;;;;;8.02;1.33;;;20.00;65.30;;;;;;5002694;28;20089;-70
2022/06/30 05:15:19;;;;;;;4.85;1.27;;;20.00;66.00;;;;;;5005869;28;20022;-70
2022/06/30 05:17:44;;;;;;;6.32;1.15;;;20.00;66.30;;;;;;5004821;28;20036;-71
2022/06/30 05:20:11;;;;;;;6.53;1.30;;;20.00;66.10;;;;;;5003111;28;20025;-70
2022/06/30 05:22:36;;;;;;;6.22;1.40;;;20.00;65.90;;;;;;5006803;28;20108;-71
2022/06/30 05:27:46;;;;;;;10.45;1.60;;;20.00;65.90;;;;;;5003944;28;20196;-70
2022/06/30 05:30:13;;;;;;;8.48;1.50;;;20.00;65.90;;;;;;5003233;28;20033;-71
2022/06/30 05:32:39;;;;;;;8.10;1.25;;;20.00;65.90;;;;;;4998420;28;20041;-71
2022/06/30 05:35:05;;;;;;;7.72;1.30;;;20.00;65.90;;;;;;5006406;28;20077;-70
2022/06/30 05:37:31;;;;;;;8.48;1.50;;;20.00;65.90;;;;;;5006357;28;20034;-70
2022/06/30 05:39:57;;;;;;;9.32;1.00;;;20.00;65.90;;;;;;5005243;28;20029;-71
2022/06/30 05:42:22;;;;;;;6.25;1.58;;;20.00;66.00;;;;;;5004827;28;20109;-70
2022/06/30 05:44:48;;;;;;;5.85;1.50;;;20.00;65.90;;;;;;5005077;28;20479;-70
2022/06/30 05:47:14;;;;;;;5.75;1.20;;;20.00;65.90;;;;;;5005535;28;20026;-70
2022/06/30 05:49:40;;;;;;;5.55;1.48;;;20.00;65.90;;;;;;5005700;28;20057;-70
2022/06/30 05:52:05;;;;;;;6.82;1.70;;;20.00;65.90;;;;;;5006403;28;20030;-70
2022/06/30 05:54:31;;;;;;;4.82;1.20;;;20.00;65.90;;;;;;5004565;28;20462;-70
2022/06/30 05:56:57;;;;;;;5.15;1.40;;;20.00;66.50;;;;;;5005013;28;20127;-71
2022/06/30 05:59:22;;;;;;;6.95;1.30;;;20.00;65.90;;;;;;5003348;28;20493;-70
2022/06/30 06:01:48;;;;;;;5.38;1.33;;;20.00;65.90;;;;;;5004614;28;20025;-70
2022/06/30 06:04:14;;;;;;;7.85;1.40;;;19.90;65.80;;;;;;5005072;28;20080;-70
2022/06/30 06:06:39;;;;;;;5.80;1.30;;;19.90;65.80;;;;;;5004926;28;20045;-70
2022/06/30 06:09:05;;;;;;;7.57;1.40;;;20.00;65.90;;;;;;5003475;28;20044;-70
2022/06/30 06:11:32;;;;;;;8.70;1.63;;;20.00;65.90;;;;;;5005820;28;20125;-70
2022/06/30 06:13:58;;;;;;;4.20;1.20;;;19.90;65.80;;;;;;5005299;28;20136;-70
2022/06/30 06:16:24;;;;;;;5.03;1.25;;;19.90;65.80;;;;;;5004990;28;20095;-71
2022/06/30 06:18:50;;;;;;;5.25;1.10;;;19.90;65.80;;;;;;5005860;28;20382;-70
2022/06/30 06:21:15;;;;;;;6.45;1.52;;;19.90;65.80;;;;;;5001247;28;20033;-70
2022/06/30 06:23:41;;;;;;;4.55;1.23;;;19.90;65.80;;;;;;5004549;28;20014;-70
2022/06/30 06:26:06;;;;;;;5.32;1.45;;;19.90;65.80;;;;;;5005149;28;20026;-70
2022/06/30 06:31:17;;;;;;;5.38;1.60;;;19.90;65.80;;;;;;5002662;28;20112;-70
2022/06/30 06:33:44;;;;;;;3.92;1.10;;;19.90;65.80;;;;;;5005043;28;20585;-70
2022/06/30 06:36:10;;;;;;;5.72;1.10;;;19.90;65.80;;;;;;5005541;28;20029;-70
2022/06/30 06:38:35;;;;;;;4.38;1.33;;;19.90;65.70;;;;;;5004424;28;20109;-70
2022/06/30 06:41:02;;;;;;;6.25;1.40;;;19.90;65.70;;;;;;5004556;28;20034;-70
2022/06/30 06:43:28;;;;;;;5.78;1.25;;;19.90;65.70;;;;;;5005433;28;20013;-70
2022/06/30 06:45:53;;;;;;;6.38;1.00;;;19.90;65.70;;;;;;5005053;28;20574;-70
2022/06/30 06:48:19;;;;;;;4.43;1.27;;;19.90;65.70;;;;;;5002364;28;20109;-70
2022/06/30 06:50:44;;;;;;;4.28;1.23;;;19.90;65.80;;;;;;5005213;28;20478;-70
2022/06/30 06:53:10;;;;;;;3.42;1.00;;;19.90;65.70;;;;;;5009490;28;20376;-70
2022/06/30 06:55:36;;;;;;;4.57;1.35;;;19.90;65.70;;;;;;5008693;28;20068;-70
2022/06/30 06:58:02;;;;;;;5.22;1.10;;;19.90;65.70;;;;;;5007392;28;20033;-70
2022/06/30 07:00:27;;;;;;;5.97;1.40;;;19.90;65.70;;;;;;5007487;28;20427;-70
2022/06/30 07:02:53;;;;;;;4.68;1.27;;;19.90;65.70;;;;;;5010257;28;20132;-70
2022/06/30 07:05:19;;;;;;;4.28;1.00;;;19.90;65.70;;;;;;5008053;28;20021;-70
2022/06/30 07:07:44;;;;;;;3.90;1.10;;;19.90;65.60;;;;;;5008966;28;20367;-71
2022/06/30 07:10:10;;;;;;;4.65;1.13;;;19.90;65.60;;;;;;5008298;28;20560;-70
2022/06/30 07:12:35;;;;;;;4.22;1.10;;;19.90;65.70;;;;;;5007880;28;20034;-70
2022/06/30 07:15:01;;;;;;;4.15;1.10;;;19.90;65.60;;;;;;5008348;28;20397;-70
2022/06/30 07:17:27;;;;;;;5.47;1.20;;;19.90;65.50;;;;;;5007707;28;20046;-70
2022/06/30 07:19:52;;;;;;;6.82;1.05;;;19.90;65.50;;;;;;5007907;28;20026;-70
2022/06/30 07:22:18;;;;;;;5.85;1.33;;;19.90;65.50;;;;;;5007932;28;20083;-70
2022/06/30 07:24:44;;;;;;;4.75;1.10;;;19.90;65.40;;;;;;5008542;28;20568;-70
2022/06/30 07:27:09;;;;;;;3.83;1.00;;;19.90;65.40;;;;;;5007308;28;20530;-70
2022/06/30 07:29:35;;;;;;;3.80;1.13;;;19.90;65.40;;;;;;5008446;28;20022;-70
2022/06/30 07:32:01;;;;;;;4.68;1.13;;;19.90;65.40;;;;;;5006797;28;20042;-70
2022/06/30 07:34:26;;;;;;;5.15;1.30;;;20.00;65.50;;;;;;5008116;28;20041;-70
2022/06/30 07:36:52;;;;;;;3.00;1.00;;;19.90;65.40;;;;;;5006656;28;20037;-70
2022/06/30 07:39:18;;;;;;;6.00;1.30;;;20.00;65.40;;;;;;5007798;28;20026;-70
2022/06/30 07:41:43;;;;;;;4.55;1.02;;;20.00;65.40;;;;;;5009297;28;20069;-70
2022/06/30 07:44:09;;;;;;;4.90;1.10;;;20.00;65.30;;;;;;5008797;28;20109;-70
2022/06/30 07:46:34;;;;;;;4.28;1.33;;;20.00;65.30;;;;;;5010054;28;20063;-70
2022/06/30 07:49:00;;;;;;;3.90;1.13;;;20.00;65.30;;;;;;5007393;28;20030;-70
2022/06/30 07:51:26;;;;;;;2.95;1.00;;;20.00;65.30;;;;;;5006217;28;20034;-70
2022/06/30 07:53:51;;;;;;;4.07;1.00;;;20.00;65.20;;;;;;5006370;28;20561;-71
2022/06/30 07:56:17;;;;;;;3.22;1.20;;;20.00;65.20;;;;;;5009054;28;20491;-70
2022/06/30 07:58:43;;;;;;;2.65;0.93;;;20.00;65.20;;;;;;5008733;28;20018;-70
2022/06/30 08:01:08;;;;;;;4.43;1.00;;;20.00;65.20;;;;;;5007901;28;20040;-70
2022/06/30 08:03:34;;;;;;;3.53;0.90;;;20.00;65.40;;;;;;5005979;28;20022;-70
2022/06/30 08:06:00;;;;;;;4.93;1.20;;;20.00;65.40;;;;;;5006769;28;20021;-70
2022/06/30 08:08:25;;;;;;;3.55;0.90;;;20.00;65.40;;;;;;5007632;28;20119;-70
2022/06/30 08:10:52;;;;;;;3.28;1.08;;;20.00;65.50;;;;;;5006884;28;20394;-70
2022/06/30 08:13:17;;;;;;;5.90;1.20;;;20.00;65.40;;;;;;5007541;28;20042;-70
2022/06/30 08:15:43;;;;;;;3.60;1.10;;;20.00;65.30;;;;;;5007189;28;20049;-70
2022/06/30 08:18:09;;;;;;;4.15;1.00;;;20.00;65.40;;;;;;5006066;28;20022;-70
2022/06/30 08:20:34;;;;;;;3.15;1.00;;;20.00;65.40;;;;;;5006895;28;20026;-71
2022/06/30 08:23:00;;;;;;;3.95;0.95;;;20.00;65.40;;;;;;5007570;28;20069;-70
2022/06/30 08:25:26;;;;;;;4.72;1.20;;;20.00;65.40;;;;;;5008287;28;20032;-70
2022/06/30 08:27:52;;;;;;;4.50;1.13;;;20.00;65.40;;;;;;5006150;28;20151;-70
2022/06/30 08:30:18;;;;;;;4.60;0.93;;;20.00;65.30;;;;;;5007416;28;20459;-70
2022/06/30 08:32:43;;;;;;;4.88;1.00;;;20.10;65.30;;;;;;5008092;28;20561;-70
2022/06/30 08:35:09;;;;;;;2.03;0.93;;;20.10;65.30;;;;;;5006312;28;20026;-70
2022/06/30 08:37:35;;;;;;;3.42;1.00;;;20.00;65.20;;;;;;5009293;28;20026;-70
2022/06/30 08:42:45;;;;;;;2.55;1.02;;;20.10;65.20;;;;;;5006860;28;20469;-70
2022/06/30 08:45:13;;;;;;;1.52;0.70;;;20.10;65.10;;;;;;4999037;28;20045;-70
2022/06/30 08:47:39;;;;;;;3.30;0.90;;;20.10;65.10;;;;;;5006474;28;20038;-70
2022/06/30 08:50:06;;;;;;;1.67;0.88;;;20.20;65.20;;;;;;5001793;28;20557;-70
2022/06/30 08:52:32;;;;;;;3.25;1.10;;;20.10;65.10;;;;;;5005122;28;20037;-70
2022/06/30 08:54:58;;;;;;;2.25;0.80;;;20.20;65.20;;;;;;5024076;28;20034;-70
2022/06/30 08:57:25;;;;;;;3.25;1.05;;;20.10;65.20;;;;;;5019455;28;20026;-70
2022/06/30 08:59:52;;;;;;;2.38;0.90;;;20.10;65.20;;;;;;5007895;28;20030;-70
2022/06/30 09:02:19;;;;;;;3.80;1.13;;;20.10;65.20;;;;;;5004887;28;20520;-70
2022/06/30 09:04:44;;;;;;;5.65;1.00;;;20.10;65.20;;;;;;5006368;28;20026;-70
2022/06/30 09:07:11;;;;;;;1.95;0.80;;;20.10;65.10;;;;;;5007202;28;20033;-70
2022/06/30 09:09:36;;;;;;;4.53;1.20;;;20.10;65.10;;;;;;5006578;28;20022;-70
2022/06/30 09:12:02;;;;;;;2.13;1.05;;;20.20;65.00;;;;;;5006137;28;20037;-70
2022/06/30 09:14:54;;;;;;;2.75;0.95;;;20.20;65.00;;;;;;5005435;28;20029;-70
2022/06/30 09:17:22;;;;;;;2.83;0.88;;;20.20;65.00;;;;;;5000753;28;20057;-71
2022/06/30 09:20:08;;;;;;;2.13;0.90;;;20.20;65.00;;;;;;5007408;28;20026;-71
2022/06/30 09:22:35;;;;;;;2.75;1.00;;;20.20;65.00;;;;;;5004711;28;20029;-70
2022/06/30 09:25:05;;;;;;;2.50;1.00;;;20.20;65.00;;;;;;5006311;28;20128;-71
2022/06/30 09:27:32;;;;;;;2.60;1.05;;;20.30;64.90;;;;;;5006377;28;20226;-71
2022/06/30 09:30:10;;;;;;;3.15;0.77;;;20.20;64.90;;;;;;5006608;28;20560;-71
2022/06/30 09:32:56;;;;;;;3.00;1.00;;;20.20;65.00;;;;;;5003074;28;20029;-71
2022/06/30 09:35:23;;;;;;;2.13;0.90;;;20.20;65.00;;;;;;5004390;28;20057;-70
2022/06/30 09:38:15;;;;;;;2.03;0.93;;;20.20;65.00;;;;;;5005586;28;20053;-71
2022/06/30 09:41:00;;;;;;;2.47;0.80;;;20.20;65.00;;;;;;4996875;28;20470;-70
2022/06/30 09:43:39;;;;;;;3.38;1.10;;;20.20;64.90;;;;;;5003199;28;20041;-71
2022/06/30 09:46:05;;;;;;;2.70;1.00;;;20.30;64.90;;;;;;5004706;28;20030;-71
2022/06/30 09:48:32;;;;;;;3.90;0.90;;;20.30;65.00;;;;;;5006632;28;20044;-71
2022/06/30 09:51:02;;;;;;;1.75;0.80;;;20.20;65.00;;;;;;5006989;28;20065;-71
2022/06/30 09:53:29;;;;;;;2.05;0.77;;;20.20;65.00;;;;;;5002681;28;20042;-71
2022/06/30 09:55:56;;;;;;;2.17;0.95;;;20.20;65.10;;;;;;5002012;28;20109;-71
2022/06/30 09:58:30;;;;;;;3.75;0.80;;;20.20;65.10;;;;;;5005512;28;20506;-71
2022/06/30 10:00:56;;;;;;;1.45;0.65;;;20.20;65.20;;;;;;5003052;28;20041;-71
2022/06/30 10:03:22;;;;;;;3.00;0.98;;;20.20;65.20;;;;;;5005006;28;20030;-71
2022/06/30 10:05:49;;;;;;;3.22;0.80;;;20.20;65.20;;;;;;5002631;28;20025;-71
2022/06/30 10:08:16;;;;;;;4.20;1.00;;;20.20;65.20;;;;;;5004299;28;20029;-72
2022/06/30 10:10:42;;;;;;;1.98;0.82;;;20.20;65.20;;;;;;5005351;28;20065;-72
2022/06/30 10:13:13;;;;;;;3.40;1.02;;;20.20;65.20;;;;;;5003954;28;20053;-71
2022/06/30 10:15:39;;;;;;;2.55;0.90;;;20.20;65.20;;;;;;5016177;28;20054;-72
2022/06/30 10:18:04;;;;;;;3.63;0.80;;;20.20;65.20;;;;;;5015588;28;20375;-71
2022/06/30 10:20:33;;;;;;;2.28;0.73;;;20.20;65.20;;;;;;5004253;28;20065;-71
2022/06/30 10:22:58;;;;;;;4.45;1.33;;;20.20;65.20;;;;;;5004337;28;20030;-71
2022/06/30 10:25:24;;;;;;;6.55;1.77;;;20.20;65.90;;;;;;5004116;28;20406;-71
2022/06/30 10:27:50;;;;;;;7.10;1.30;;;20.20;67.00;;;;;;5003838;28;20026;-71
2022/06/30 10:30:16;;;;;;;5.43;1.15;;;20.30;66.50;;;;;;5020559;28;20037;-71
2022/06/30 10:32:48;;;;;;;8.95;4.15;;;20.30;65.90;;;;;;5012240;28;20469;-72
2022/06/30 10:35:17;;;;;;;18.60;10.10;;;20.30;65.90;;;;;;5003519;28;20030;-72
2022/06/30 10:37:49;;;;;;;18.50;11.73;;;20.40;66.10;;;;;;5005997;28;20056;-71
2022/06/30 10:40:21;;;;;;;21.30;10.57;;;20.40;65.60;;;;;;5005241;28;20030;-72
2022/06/30 10:42:55;;;;;;;19.40;10.55;;;20.40;65.60;;;;;;5003984;28;20022;-71
2022/06/30 10:45:26;;;;;;;19.33;10.43;;;20.40;65.40;;;;;;5003906;28;20454;-71
2022/06/30 10:47:56;;;;;;;17.88;10.02;;;20.40;65.50;;;;;;5005340;28;20305;-71
2022/06/30 10:50:38;;;;;;;18.67;9.75;;;20.40;65.30;;;;;;5005239;28;20030;-71
2022/06/30 10:53:06;;;;;;;19.02;9.82;;;20.50;65.40;;;;;;5002884;28;20524;-71
2022/06/30 10:55:47;;;;;;;16.13;9.02;;;20.50;65.20;;;;;;5003269;28;20072;-72
2022/06/30 10:58:13;;;;;;;19.08;9.10;;;20.50;65.20;;;;;;5003307;28;20034;-71
2022/06/30 11:00:41;;;;;;;17.17;9.10;;;20.50;65.20;;;;;;5006278;28;20073;-71
2022/06/30 11:03:07;;;;;;;15.77;9.40;;;20.50;65.40;;;;;;5002260;28;20056;-71
2022/06/30 11:05:33;;;;;;;18.05;9.70;;;20.50;65.30;;;;;;5003823;28;20479;-71
2022/06/30 11:08:39;;;;;;;16.65;8.95;;;20.50;65.60;;;;;;5004977;28;20031;-71
2022/06/30 11:11:22;;;;;;;16.70;9.05;;;20.50;65.50;;;;;;5005626;28;20042;-71
2022/06/30 11:13:51;;;;;;;19.50;8.88;;;20.50;65.60;;;;;;5001203;28;20137;-71
2022/06/30 11:16:18;;;;;;;18.08;8.85;;;20.50;65.80;;;;;;5006457;28;20410;-71
2022/06/30 11:18:44;;;;;;;15.77;8.82;;;20.50;65.70;;;;;;5004299;28;20026;-71
2022/06/30 11:21:10;;;;;;;18.63;9.02;;;20.60;66.20;;;;;;5004101;28;20038;-72
2022/06/30 11:23:45;;;;;;;19.27;9.60;;;20.60;65.30;;;;;;5006015;28;20534;-71
2022/06/30 11:28:57;;;;;;;16.08;8.48;;;20.60;65.20;;;;;;5004888;28;20081;-72
2022/06/30 11:31:24;;;;;;;15.02;8.65;;;20.70;65.40;;;;;;5004702;28;20477;-71
2022/06/30 11:33:58;;;;;;;15.57;8.40;;;20.60;65.20;;;;;;5004290;28;20029;-73
2022/06/30 11:36:23;;;;;;;15.10;8.40;;;20.60;65.20;;;;;;5005064;28;20096;-71
2022/06/30 11:38:54;;;;;;;15.23;8.65;;;20.70;65.30;;;;;;5007123;28;20025;-72
2022/06/30 11:44:10;;;;;;;15.48;8.43;;;20.60;65.50;;;;;;5007330;28;20092;-72
2022/06/30 11:46:54;;;;;;;15.02;8.30;;;20.60;65.50;;;;;;5008826;28;20030;-71
2022/06/30 11:49:20;;;;;;;14.82;8.43;;;20.60;65.40;;;;;;5005679;28;20026;-71
2022/06/30 11:51:46;;;;;;;17.40;8.57;;;20.60;65.60;;;;;;5006444;28;20053;-72
2022/06/30 11:54:12;;;;;;;14.90;8.23;;;20.60;65.90;;;;;;5007746;28;20027;-72
2022/06/30 11:56:48;;;;;;;16.65;8.60;;;20.60;65.80;;;;;;5006945;28;20032;-72
2022/06/30 11:59:13;;;;;;;14.35;8.00;;;20.60;66.00;;;;;;5004881;28;20054;-72
2022/06/30 12:01:40;;;;;;;14.77;8.43;;;20.60;65.80;;;;;;5009375;28;20108;-72
2022/06/30 12:04:14;;;;;;;13.95;7.80;;;20.60;65.80;;;;;;5007445;28;20458;-72
2022/06/30 12:06:40;;;;;;;14.32;7.80;;;20.60;65.90;;;;;;5007874;28;20026;-72
2022/06/30 12:09:06;;;;;;;13.30;7.57;;;20.60;65.80;;;;;;5007130;28;20429;-72
2022/06/30 12:11:31;;;;;;;14.85;8.25;;;20.60;65.70;;;;;;5007766;28;20117;-72
2022/06/30 12:13:57;;;;;;;13.73;7.95;;;20.70;65.70;;;;;;5006414;28;20033;-72
2022/06/30 12:16:24;;;;;;;14.02;7.85;;;20.60;65.60;;;;;;5007579;28;20061;-72
2022/06/30 12:18:49;;;;;;;13.13;7.70;;;20.70;65.50;;;;;;5004122;28;20488;-72
2022/06/30 12:21:15;;;;;;;16.40;8.20;;;20.70;65.60;;;;;;5008568;28;20034;-72
2022/06/30 12:23:42;;;;;;;13.93;7.60;;;20.70;65.50;;;;;;5007530;28;20084;-72
2022/06/30 12:26:08;;;;;;;13.80;7.25;;;20.70;65.60;;;;;;5005948;28;20036;-72
2022/06/30 12:28:55;;;;;;;13.70;7.75;;;20.80;65.50;;;;;;5007120;28;20030;-72
2022/06/30 12:31:28;;;;;;;13.63;7.07;;;20.80;65.60;;;;;;5004622;28;20046;-71
2022/06/30 12:33:58;;;;;;;12.55;7.00;;;20.80;65.40;;;;;;5007782;28;20022;-71
2022/06/30 12:36:24;;;;;;;13.18;7.30;;;20.80;65.40;;;;;;5005338;28;20042;-71
2022/06/30 12:38:49;;;;;;;14.23;7.20;;;20.90;65.50;;;;;;5016653;28;20029;-71
2022/06/30 12:41:15;;;;;;;13.35;6.72;;;20.90;65.50;;;;;;5006513;28;20034;-71
2022/06/30 12:43:45;;;;;;;13.10;6.95;;;20.90;65.40;;;;;;5008019;28;20116;-71
2022/06/30 12:46:11;;;;;;;13.73;7.32;;;20.90;65.60;;;;;;5006634;28;20045;-71
2022/06/30 12:48:53;;;;;;;14.57;7.50;;;20.90;65.70;;;;;;5005569;28;20026;-71
2022/06/30 12:51:28;;;;;;;14.18;7.03;;;20.90;65.90;;;;;;5007363;28;20038;-72
2022/06/30 12:54:00;;;;;;;;;;;20.90;65.70;;;;;;5007603;28;20029;-72
2022/06/30 12:56:27;;;;;;;12.57;6.85;;;20.90;65.60;;;;;;5006019;28;19910;-71
2022/06/30 12:58:54;;;;;;;12.60;6.78;;;20.90;65.60;;;;;;5012235;28;20882;-71
2022/06/30 13:01:27;;;;;;;11.10;6.13;;;20.90;65.60;;;;;;5007376;28;20026;-71
2022/06/30 13:03:55;;;;;;;11.55;6.55;;;21.00;65.50;;;;;;5004812;28;20506;-72
2022/06/30 13:06:20;;;;;;;11.57;6.78;;;20.90;65.60;;;;;;5006335;28;20572;-71
2022/06/30 13:08:46;;;;;;;13.63;6.88;;;20.90;65.70;;;;;;5006403;28;20030;-72